Terminal Aerodrome Forecast
Issued by NWS

Current Version | Previous Version | Graphics & Text | Print | Product List | Glossary On
Versions: 1 2 3 4 5 6 7 8 9 10 11 12 13 14 15 16 17 18 19
000
FTUS41 KILN 171400 AAA
TAFLUK
TAF AMD
KLUK 171459Z 1715/1812 21010G16KT P6SM SCT250
     FM172200 21008KT P6SM SCT250
     FM180000 17004KT P6SM BKN200
     FM180800 VRB03KT P6SM BKN050=

USA.gov is the U.S. government's official web portal to all federal, state and local government web resources and services.